Floy, Texas
Current Conditions -  °F | °C
As of 12:15 AM on Sunday 26 Oct 2014 (Local Time) from K3T5 Reporting Station
Clear Clear  
Wind Chill: 69°   Ceiling: Unl
Heat Index: 69°   Visibility: 10mi
Dew Point: 61°   Wind: 6mph
Humidity: 76%   Direction: 210°SSW
Pressure: 30.07"   Gusts: NA
Location:  29.7626°N, 97.1228°W
Report Text: K3T5 260515Z AUTO 21005KT 10SM CLR 21/16 A3007 RMK AO2 T02050161
Loading
Personal Weather Stations






























Interactive Weather Map
Tropical Storm Tracking
New forecast layout! Learn more

10-Day Weather Forecast

Advertisements
Track Severe Weather on mobile